sensor_id;sensor_type;location;lat;lon;timestamp;P1;durP1;ratioP1;P2;durP2;ratioP2
15012;SDS011;7603;49.432;11.418;2022-07-29T00:00:36;3.67;;;2.90;;
15012;SDS011;7603;49.432;11.418;2022-07-29T00:03:02;6.65;;;2.90;;
15012;SDS011;7603;49.432;11.418;2022-07-29T00:05:28;3.42;;;2.47;;
15012;SDS011;7603;49.432;11.418;2022-07-29T00:07:53;3.78;;;2.30;;
15012;SDS011;7603;49.432;11.418;2022-07-29T00:10:19;2.95;;;2.65;;
15012;SDS011;7603;49.432;11.418;2022-07-29T00:12:45;4.78;;;2.40;;
15012;SDS011;7603;49.432;11.418;2022-07-29T00:15:11;3.45;;;2.30;;
15012;SDS011;7603;49.432;11.418;2022-07-29T00:17:37;3.30;;;2.50;;
15012;SDS011;7603;49.432;11.418;2022-07-29T00:20:03;2.80;;;2.60;;
15012;SDS011;7603;49.432;11.418;2022-07-29T00:22:30;3.47;;;2.67;;
15012;SDS011;7603;49.432;11.418;2022-07-29T00:24:56;3.38;;;2.75;;
15012;SDS011;7603;49.432;11.418;2022-07-29T00:27:22;2.60;;;2.40;;
15012;SDS011;7603;49.432;11.418;2022-07-29T00:29:48;3.03;;;2.83;;
15012;SDS011;7603;49.432;11.418;2022-07-29T00:32:13;4.15;;;2.30;;
15012;SDS011;7603;49.432;11.418;2022-07-29T00:34:39;5.10;;;2.80;;
15012;SDS011;7603;49.432;11.418;2022-07-29T00:37:24;2.92;;;2.72;;
15012;SDS011;7603;49.432;11.418;2022-07-29T00:39:50;3.03;;;2.70;;
15012;SDS011;7603;49.432;11.418;2022-07-29T00:42:16;4.28;;;2.60;;
15012;SDS011;7603;49.432;11.418;2022-07-29T00:44:42;2.95;;;2.38;;
15012;SDS011;7603;49.432;11.418;2022-07-29T00:47:09;2.80;;;2.55;;
15012;SDS011;7603;49.432;11.418;2022-07-29T00:49:36;3.65;;;2.55;;
15012;SDS011;7603;49.432;11.418;2022-07-29T00:52:03;2.90;;;2.70;;
15012;SDS011;7603;49.432;11.418;2022-07-29T00:54:30;5.60;;;2.53;;
15012;SDS011;7603;49.432;11.418;2022-07-29T00:57:00;4.88;;;3.00;;
15012;SDS011;7603;49.432;11.418;2022-07-29T00:59:27;3.97;;;2.75;;
15012;SDS011;7603;49.432;11.418;2022-07-29T01:01:53;2.72;;;2.53;;
15012;SDS011;7603;49.432;11.418;2022-07-29T01:04:20;6.05;;;2.85;;
15012;SDS011;7603;49.432;11.418;2022-07-29T01:06:47;2.88;;;2.58;;
15012;SDS011;7603;49.432;11.418;2022-07-29T01:09:14;4.93;;;2.70;;
15012;SDS011;7603;49.432;11.418;2022-07-29T01:11:41;4.22;;;2.88;;
15012;SDS011;7603;49.432;11.418;2022-07-29T01:14:08;3.30;;;3.00;;
15012;SDS011;7603;49.432;11.418;2022-07-29T01:16:40;4.78;;;3.10;;
15012;SDS011;7603;49.432;11.418;2022-07-29T01:21:55;6.15;;;2.60;;
15012;SDS011;7603;49.432;11.418;2022-07-29T01:26:59;8.30;;;3.20;;
15012;SDS011;7603;49.432;11.418;2022-07-29T01:29:41;7.93;;;2.90;;
15012;SDS011;7603;49.432;11.418;2022-07-29T01:32:14;5.18;;;3.65;;
15012;SDS011;7603;49.432;11.418;2022-07-29T01:39:49;3.90;;;3.05;;
15012;SDS011;7603;49.432;11.418;2022-07-29T01:42:23;4.82;;;2.80;;
15012;SDS011;7603;49.432;11.418;2022-07-29T01:45:17;4.18;;;2.97;;
15012;SDS011;7603;49.432;11.418;2022-07-29T01:50:22;3.40;;;3.10;;
15012;SDS011;7603;49.432;11.418;2022-07-29T01:53:06;3.88;;;3.10;;
15012;SDS011;7603;49.432;11.418;2022-07-29T01:55:44;3.67;;;2.90;;
15012;SDS011;7603;49.432;11.418;2022-07-29T01:58:11;3.30;;;3.00;;
15012;SDS011;7603;49.432;11.418;2022-07-29T02:00:39;3.85;;;3.50;;
15012;SDS011;7603;49.432;11.418;2022-07-29T02:03:09;3.90;;;3.40;;
15012;SDS011;7603;49.432;11.418;2022-07-29T02:05:37;5.82;;;3.17;;
15012;SDS011;7603;49.432;11.418;2022-07-29T02:08:07;4.45;;;3.78;;
15012;SDS011;7603;49.432;11.418;2022-07-29T02:10:34;4.35;;;3.65;;
15012;SDS011;7603;49.432;11.418;2022-07-29T02:13:03;5.05;;;3.40;;
15012;SDS011;7603;49.432;11.418;2022-07-29T02:15:31;5.22;;;3.50;;
15012;SDS011;7603;49.432;11.418;2022-07-29T02:18:00;6.03;;;3.40;;
15012;SDS011;7603;49.432;11.418;2022-07-29T02:20:29;5.00;;;3.72;;
15012;SDS011;7603;49.432;11.418;2022-07-29T02:22:56;3.80;;;3.28;;
15012;SDS011;7603;49.432;11.418;2022-07-29T02:25:25;3.53;;;3.25;;
15012;SDS011;7603;49.432;11.418;2022-07-29T02:27:52;4.70;;;3.47;;
15012;SDS011;7603;49.432;11.418;2022-07-29T02:30:19;5.35;;;3.08;;
15012;SDS011;7603;49.432;11.418;2022-07-29T02:32:46;3.67;;;3.40;;
15012;SDS011;7603;49.432;11.418;2022-07-29T02:35:14;6.65;;;3.97;;
15012;SDS011;7603;49.432;11.418;2022-07-29T02:37:41;3.28;;;2.97;;
15012;SDS011;7603;49.432;11.418;2022-07-29T02:40:12;5.03;;;3.08;;
15012;SDS011;7603;49.432;11.418;2022-07-29T02:42:41;6.97;;;3.33;;
15012;SDS011;7603;49.432;11.418;2022-07-29T02:45:09;3.70;;;3.03;;
15012;SDS011;7603;49.432;11.418;2022-07-29T02:47:46;3.65;;;3.30;;
15012;SDS011;7603;49.432;11.418;2022-07-29T02:50:21;4.50;;;2.95;;
15012;SDS011;7603;49.432;11.418;2022-07-29T02:52:58;5.07;;;3.45;;
15012;SDS011;7603;49.432;11.418;2022-07-29T02:55:59;3.63;;;2.78;;
15012;SDS011;7603;49.432;11.418;2022-07-29T02:58:29;4.18;;;3.13;;
15012;SDS011;7603;49.432;11.418;2022-07-29T03:01:04;3.17;;;2.97;;
15012;SDS011;7603;49.432;11.418;2022-07-29T03:03:37;4.57;;;3.45;;
15012;SDS011;7603;49.432;11.418;2022-07-29T03:06:04;3.63;;;3.33;;
15012;SDS011;7603;49.432;11.418;2022-07-29T03:08:32;4.45;;;3.45;;
15012;SDS011;7603;49.432;11.418;2022-07-29T03:10:59;5.88;;;3.03;;
15012;SDS011;7603;49.432;11.418;2022-07-29T03:13:26;3.17;;;2.83;;
15012;SDS011;7603;49.432;11.418;2022-07-29T03:15:54;5.13;;;2.95;;
15012;SDS011;7603;49.432;11.418;2022-07-29T03:18:21;6.82;;;3.45;;
15012;SDS011;7603;49.432;11.418;2022-07-29T03:20:47;3.97;;;3.10;;
15012;SDS011;7603;49.432;11.418;2022-07-29T03:23:17;3.28;;;2.88;;
15012;SDS011;7603;49.432;11.418;2022-07-29T03:25:52;3.30;;;2.72;;
15012;SDS011;7603;49.432;11.418;2022-07-29T03:28:18;4.45;;;3.28;;
15012;SDS011;7603;49.432;11.418;2022-07-29T03:30:44;4.53;;;2.85;;
15012;SDS011;7603;49.432;11.418;2022-07-29T03:33:10;5.55;;;3.13;;
15012;SDS011;7603;49.432;11.418;2022-07-29T03:35:36;5.72;;;3.40;;
15012;SDS011;7603;49.432;11.418;2022-07-29T03:38:02;3.25;;;2.95;;
15012;SDS011;7603;49.432;11.418;2022-07-29T03:40:31;4.40;;;2.95;;
15012;SDS011;7603;49.432;11.418;2022-07-29T03:43:07;5.63;;;3.17;;
15012;SDS011;7603;49.432;11.418;2022-07-29T03:45:35;3.25;;;3.03;;
15012;SDS011;7603;49.432;11.418;2022-07-29T03:48:05;4.88;;;3.20;;
15012;SDS011;7603;49.432;11.418;2022-07-29T03:50:34;3.72;;;3.42;;
15012;SDS011;7603;49.432;11.418;2022-07-29T03:53:00;3.85;;;3.55;;
15012;SDS011;7603;49.432;11.418;2022-07-29T03:55:28;3.75;;;3.05;;
15012;SDS011;7603;49.432;11.418;2022-07-29T03:57:57;5.18;;;3.00;;
15012;SDS011;7603;49.432;11.418;2022-07-29T04:00:24;3.92;;;3.67;;
15012;SDS011;7603;49.432;11.418;2022-07-29T04:02:51;5.13;;;3.92;;
15012;SDS011;7603;49.432;11.418;2022-07-29T04:05:17;3.65;;;3.30;;
15012;SDS011;7603;49.432;11.418;2022-07-29T04:07:46;5.35;;;3.47;;
15012;SDS011;7603;49.432;11.418;2022-07-29T04:10:13;5.22;;;3.75;;
15012;SDS011;7603;49.432;11.418;2022-07-29T04:12:40;4.82;;;3.58;;
15012;SDS011;7603;49.432;11.418;2022-07-29T04:15:06;4.85;;;3.30;;
15012;SDS011;7603;49.432;11.418;2022-07-29T04:17:33;3.80;;;3.20;;
15012;SDS011;7603;49.432;11.418;2022-07-29T04:19:59;3.75;;;3.55;;
15012;SDS011;7603;49.432;11.418;2022-07-29T04:22:24;5.95;;;5.22;;
15012;SDS011;7603;49.432;11.418;2022-07-29T04:24:50;6.07;;;5.68;;
15012;SDS011;7603;49.432;11.418;2022-07-29T04:27:16;3.50;;;3.30;;
15012;SDS011;7603;49.432;11.418;2022-07-29T04:29:41;3.50;;;3.20;;
15012;SDS011;7603;49.432;11.418;2022-07-29T04:32:07;3.15;;;2.95;;
15012;SDS011;7603;49.432;11.418;2022-07-29T04:34:33;4.35;;;2.97;;
15012;SDS011;7603;49.432;11.418;2022-07-29T04:36:58;6.07;;;3.00;;
15012;SDS011;7603;49.432;11.418;2022-07-29T04:39:24;5.55;;;2.90;;
15012;SDS011;7603;49.432;11.418;2022-07-29T04:41:50;3.13;;;2.83;;
15012;SDS011;7603;49.432;11.418;2022-07-29T04:44:16;5.57;;;2.92;;
15012;SDS011;7603;49.432;11.418;2022-07-29T04:46:42;5.88;;;3.00;;
15012;SDS011;7603;49.432;11.418;2022-07-29T04:49:08;3.20;;;2.50;;
15012;SDS011;7603;49.432;11.418;2022-07-29T04:51:34;4.55;;;4.15;;
15012;SDS011;7603;49.432;11.418;2022-07-29T04:54:00;6.45;;;4.45;;
15012;SDS011;7603;49.432;11.418;2022-07-29T04:56:26;6.68;;;4.10;;
15012;SDS011;7603;49.432;11.418;2022-07-29T04:58:51;3.80;;;3.35;;
15012;SDS011;7603;49.432;11.418;2022-07-29T05:01:18;4.53;;;3.33;;
15012;SDS011;7603;49.432;11.418;2022-07-29T05:03:44;5.57;;;3.25;;
15012;SDS011;7603;49.432;11.418;2022-07-29T05:06:11;9.80;;;5.28;;
15012;SDS011;7603;49.432;11.418;2022-07-29T05:08:37;6.13;;;3.97;;
15012;SDS011;7603;49.432;11.418;2022-07-29T05:11:03;4.55;;;3.28;;
15012;SDS011;7603;49.432;11.418;2022-07-29T05:13:29;6.18;;;3.10;;
15012;SDS011;7603;49.432;11.418;2022-07-29T05:15:55;5.32;;;2.90;;
15012;SDS011;7603;49.432;11.418;2022-07-29T05:18:23;6.97;;;2.90;;
15012;SDS011;7603;49.432;11.418;2022-07-29T05:20:49;3.60;;;3.25;;
15012;SDS011;7603;49.432;11.418;2022-07-29T05:23:14;3.78;;;3.38;;
15012;SDS011;7603;49.432;11.418;2022-07-29T05:25:40;5.70;;;2.90;;
15012;SDS011;7603;49.432;11.418;2022-07-29T05:28:06;4.07;;;2.67;;
15012;SDS011;7603;49.432;11.418;2022-07-29T05:30:32;4.22;;;2.67;;
15012;SDS011;7603;49.432;11.418;2022-07-29T05:32:57;3.42;;;3.03;;
15012;SDS011;7603;49.432;11.418;2022-07-29T05:35:23;3.10;;;2.78;;
15012;SDS011;7603;49.432;11.418;2022-07-29T05:37:48;4.25;;;2.80;;
15012;SDS011;7603;49.432;11.418;2022-07-29T05:40:14;4.53;;;2.78;;
15012;SDS011;7603;49.432;11.418;2022-07-29T05:42:40;6.15;;;3.60;;
15012;SDS011;7603;49.432;11.418;2022-07-29T05:45:05;16.85;;;8.25;;
15012;SDS011;7603;49.432;11.418;2022-07-29T05:47:31;3.03;;;2.70;;
15012;SDS011;7603;49.432;11.418;2022-07-29T05:49:57;4.93;;;3.30;;
15012;SDS011;7603;49.432;11.418;2022-07-29T05:52:23;3.78;;;3.35;;
15012;SDS011;7603;49.432;11.418;2022-07-29T05:54:48;6.38;;;4.40;;
15012;SDS011;7603;49.432;11.418;2022-07-29T05:57:18;4.30;;;3.30;;
15012;SDS011;7603;49.432;11.418;2022-07-29T05:59:45;6.55;;;5.68;;
15012;SDS011;7603;49.432;11.418;2022-07-29T06:02:11;9.65;;;5.85;;
15012;SDS011;7603;49.432;11.418;2022-07-29T06:04:37;5.10;;;3.60;;
15012;SDS011;7603;49.432;11.418;2022-07-29T06:07:03;4.53;;;3.45;;
15012;SDS011;7603;49.432;11.418;2022-07-29T06:09:28;3.42;;;3.10;;
15012;SDS011;7603;49.432;11.418;2022-07-29T06:11:54;4.32;;;3.35;;
15012;SDS011;7603;49.432;11.418;2022-07-29T06:14:20;4.60;;;3.05;;
15012;SDS011;7603;49.432;11.418;2022-07-29T06:16:45;4.97;;;3.13;;
15012;SDS011;7603;49.432;11.418;2022-07-29T06:19:11;6.25;;;3.17;;
15012;SDS011;7603;49.432;11.418;2022-07-29T06:21:41;4.47;;;3.33;;
15012;SDS011;7603;49.432;11.418;2022-07-29T06:24:13;7.25;;;3.65;;
15012;SDS011;7603;49.432;11.418;2022-07-29T06:26:39;6.55;;;3.60;;
15012;SDS011;7603;49.432;11.418;2022-07-29T06:29:06;3.75;;;3.45;;
15012;SDS011;7603;49.432;11.418;2022-07-29T06:31:32;4.93;;;4.10;;
15012;SDS011;7603;49.432;11.418;2022-07-29T06:33:57;3.97;;;3.67;;
15012;SDS011;7603;49.432;11.418;2022-07-29T06:36:23;4.05;;;3.65;;
15012;SDS011;7603;49.432;11.418;2022-07-29T06:38:49;4.22;;;3.70;;
15012;SDS011;7603;49.432;11.418;2022-07-29T06:41:15;3.60;;;3.38;;
15012;SDS011;7603;49.432;11.418;2022-07-29T06:43:42;6.55;;;3.17;;
15012;SDS011;7603;49.432;11.418;2022-07-29T06:46:10;3.38;;;3.17;;
15012;SDS011;7603;49.432;11.418;2022-07-29T06:48:38;4.57;;;3.00;;
15012;SDS011;7603;49.432;11.418;2022-07-29T06:51:05;3.45;;;2.75;;
15012;SDS011;7603;49.432;11.418;2022-07-29T06:53:32;3.58;;;3.28;;
15012;SDS011;7603;49.432;11.418;2022-07-29T06:55:59;4.85;;;3.03;;
15012;SDS011;7603;49.432;11.418;2022-07-29T06:58:26;4.00;;;2.85;;
15012;SDS011;7603;49.432;11.418;2022-07-29T07:00:52;3.72;;;3.00;;
15012;SDS011;7603;49.432;11.418;2022-07-29T07:03:18;4.53;;;2.72;;
15012;SDS011;7603;49.432;11.418;2022-07-29T07:05:45;6.20;;;2.50;;
15012;SDS011;7603;49.432;11.418;2022-07-29T07:08:11;3.05;;;2.75;;
15012;SDS011;7603;49.432;11.418;2022-07-29T07:10:38;2.78;;;2.58;;
15012;SDS011;7603;49.432;11.418;2022-07-29T07:13:04;5.97;;;2.97;;
15012;SDS011;7603;49.432;11.418;2022-07-29T07:15:30;4.03;;;2.80;;
15012;SDS011;7603;49.432;11.418;2022-07-29T07:17:56;3.85;;;2.65;;
15012;SDS011;7603;49.432;11.418;2022-07-29T07:20:22;3.83;;;2.78;;
15012;SDS011;7603;49.432;11.418;2022-07-29T07:22:48;5.80;;;2.67;;
15012;SDS011;7603;49.432;11.418;2022-07-29T07:25:14;2.50;;;2.40;;
15012;SDS011;7603;49.432;11.418;2022-07-29T07:27:42;3.00;;;2.70;;
15012;SDS011;7603;49.432;11.418;2022-07-29T07:30:10;3.65;;;2.42;;
15012;SDS011;7603;49.432;11.418;2022-07-29T07:32:37;3.80;;;2.65;;
15012;SDS011;7603;49.432;11.418;2022-07-29T07:35:03;3.95;;;2.33;;
15012;SDS011;7603;49.432;11.418;2022-07-29T07:37:30;2.50;;;2.30;;
15012;SDS011;7603;49.432;11.418;2022-07-29T07:39:56;3.65;;;3.05;;
15012;SDS011;7603;49.432;11.418;2022-07-29T07:42:23;5.30;;;3.08;;
15012;SDS011;7603;49.432;11.418;2022-07-29T07:44:49;6.70;;;3.35;;
15012;SDS011;7603;49.432;11.418;2022-07-29T07:47:15;5.45;;;3.17;;
15012;SDS011;7603;49.432;11.418;2022-07-29T07:49:47;4.55;;;3.47;;
15012;SDS011;7603;49.432;11.418;2022-07-29T07:52:14;5.97;;;3.53;;
15012;SDS011;7603;49.432;11.418;2022-07-29T07:54:41;4.55;;;3.80;;
15012;SDS011;7603;49.432;11.418;2022-07-29T07:57:08;4.72;;;3.35;;
15012;SDS011;7603;49.432;11.418;2022-07-29T07:59:33;4.07;;;3.67;;
15012;SDS011;7603;49.432;11.418;2022-07-29T08:01:59;6.57;;;3.35;;
15012;SDS011;7603;49.432;11.418;2022-07-29T08:04:26;3.78;;;2.85;;
15012;SDS011;7603;49.432;11.418;2022-07-29T08:06:51;4.45;;;3.20;;
15012;SDS011;7603;49.432;11.418;2022-07-29T08:09:19;4.90;;;2.88;;
15012;SDS011;7603;49.432;11.418;2022-07-29T08:11:45;6.38;;;3.53;;
15012;SDS011;7603;49.432;11.418;2022-07-29T08:14:11;6.10;;;3.13;;
15012;SDS011;7603;49.432;11.418;2022-07-29T08:16:38;7.15;;;3.33;;
15012;SDS011;7603;49.432;11.418;2022-07-29T08:19:04;4.22;;;3.20;;
15012;SDS011;7603;49.432;11.418;2022-07-29T08:21:30;6.40;;;3.10;;
15012;SDS011;7603;49.432;11.418;2022-07-29T08:23:56;6.38;;;3.92;;
15012;SDS011;7603;49.432;11.418;2022-07-29T08:26:42;3.35;;;3.05;;
15012;SDS011;7603;49.432;11.418;2022-07-29T08:29:08;3.83;;;3.50;;
15012;SDS011;7603;49.432;11.418;2022-07-29T08:31:35;4.22;;;3.67;;
15012;SDS011;7603;49.432;11.418;2022-07-29T08:34:01;4.43;;;4.03;;
15012;SDS011;7603;49.432;11.418;2022-07-29T08:36:27;3.75;;;3.55;;
15012;SDS011;7603;49.432;11.418;2022-07-29T08:38:53;9.20;;;4.10;;
15012;SDS011;7603;49.432;11.418;2022-07-29T08:41:19;5.15;;;3.53;;
15012;SDS011;7603;49.432;11.418;2022-07-29T08:43:45;8.45;;;5.95;;
15012;SDS011;7603;49.432;11.418;2022-07-29T08:46:11;4.07;;;3.78;;
15012;SDS011;7603;49.432;11.418;2022-07-29T08:48:37;5.53;;;3.70;;
15012;SDS011;7603;49.432;11.418;2022-07-29T08:51:05;3.45;;;2.90;;
15012;SDS011;7603;49.432;11.418;2022-07-29T08:53:32;5.03;;;3.17;;
15012;SDS011;7603;49.432;11.418;2022-07-29T08:55:59;4.15;;;3.45;;
15012;SDS011;7603;49.432;11.418;2022-07-29T08:58:27;4.72;;;3.20;;
15012;SDS011;7603;49.432;11.418;2022-07-29T09:00:57;4.35;;;3.60;;
15012;SDS011;7603;49.432;11.418;2022-07-29T09:03:31;5.18;;;3.20;;
15012;SDS011;7603;49.432;11.418;2022-07-29T09:05:59;5.78;;;3.10;;
15012;SDS011;7603;49.432;11.418;2022-07-29T09:08:26;6.63;;;2.90;;
15012;SDS011;7603;49.432;11.418;2022-07-29T09:10:52;3.92;;;3.45;;
15012;SDS011;7603;49.432;11.418;2022-07-29T09:13:18;3.50;;;3.20;;
15012;SDS011;7603;49.432;11.418;2022-07-29T09:15:44;3.50;;;3.30;;
15012;SDS011;7603;49.432;11.418;2022-07-29T09:18:10;6.93;;;5.38;;
15012;SDS011;7603;49.432;11.418;2022-07-29T09:20:36;5.15;;;4.68;;
15012;SDS011;7603;49.432;11.418;2022-07-29T09:23:21;4.13;;;3.92;;
15012;SDS011;7603;49.432;11.418;2022-07-29T09:25:47;3.88;;;3.50;;
15012;SDS011;7603;49.432;11.418;2022-07-29T09:28:14;3.63;;;3.38;;
15012;SDS011;7603;49.432;11.418;2022-07-29T09:30:57;4.05;;;3.65;;
15012;SDS011;7603;49.432;11.418;2022-07-29T09:33:23;4.10;;;3.70;;
15012;SDS011;7603;49.432;11.418;2022-07-29T09:36:03;7.18;;;5.20;;
15012;SDS011;7603;49.432;11.418;2022-07-29T09:38:30;4.30;;;4.00;;
15012;SDS011;7603;49.432;11.418;2022-07-29T09:40:56;5.55;;;4.05;;
15012;SDS011;7603;49.432;11.418;2022-07-29T09:43:27;5.30;;;4.25;;
15012;SDS011;7603;49.432;11.418;2022-07-29T09:45:53;6.75;;;3.85;;
15012;SDS011;7603;49.432;11.418;2022-07-29T09:48:25;6.88;;;4.00;;
15012;SDS011;7603;49.432;11.418;2022-07-29T09:50:50;4.18;;;3.80;;
15012;SDS011;7603;49.432;11.418;2022-07-29T09:53:30;5.32;;;3.75;;
15012;SDS011;7603;49.432;11.418;2022-07-29T09:56:00;4.32;;;4.03;;
15012;SDS011;7603;49.432;11.418;2022-07-29T09:58:26;8.70;;;5.32;;
15012;SDS011;7603;49.432;11.418;2022-07-29T10:00:53;5.97;;;4.05;;
15012;SDS011;7603;49.432;11.418;2022-07-29T10:03:19;3.92;;;3.63;;
15012;SDS011;7603;49.432;11.418;2022-07-29T10:05:46;5.47;;;4.05;;
15012;SDS011;7603;49.432;11.418;2022-07-29T10:08:36;10.52;;;5.55;;
15012;SDS011;7603;49.432;11.418;2022-07-29T10:11:09;4.63;;;4.22;;
15012;SDS011;7603;49.432;11.418;2022-07-29T10:13:36;4.57;;;4.10;;
15012;SDS011;7603;49.432;11.418;2022-07-29T10:16:02;4.35;;;3.88;;
15012;SDS011;7603;49.432;11.418;2022-07-29T10:18:28;5.60;;;3.95;;
15012;SDS011;7603;49.432;11.418;2022-07-29T10:20:54;8.10;;;6.47;;
15012;SDS011;7603;49.432;11.418;2022-07-29T10:23:21;9.50;;;5.90;;
15012;SDS011;7603;49.432;11.418;2022-07-29T10:25:48;7.78;;;4.95;;
15012;SDS011;7603;49.432;11.418;2022-07-29T10:28:14;4.43;;;3.90;;
15012;SDS011;7603;49.432;11.418;2022-07-29T10:30:39;3.85;;;3.40;;
15012;SDS011;7603;49.432;11.418;2022-07-29T10:35:57;4.35;;;3.80;;
15012;SDS011;7603;49.432;11.418;2022-07-29T10:38:52;7.22;;;4.10;;
15012;SDS011;7603;49.432;11.418;2022-07-29T10:41:43;4.10;;;3.80;;
15012;SDS011;7603;49.432;11.418;2022-07-29T10:44:17;4.82;;;3.20;;
15012;SDS011;7603;49.432;11.418;2022-07-29T10:46:45;4.90;;;4.47;;
15012;SDS011;7603;49.432;11.418;2022-07-29T10:49:14;3.47;;;3.20;;
15012;SDS011;7603;49.432;11.418;2022-07-29T10:52:07;4.45;;;3.67;;
15012;SDS011;7603;49.432;11.418;2022-07-29T10:59:42;7.25;;;5.13;;
15012;SDS011;7603;49.432;11.418;2022-07-29T11:05:11;2.90;;;2.70;;
15012;SDS011;7603;49.432;11.418;2022-07-29T11:07:39;6.28;;;3.10;;
15012;SDS011;7603;49.432;11.418;2022-07-29T11:10:25;2.83;;;2.70;;
15012;SDS011;7603;49.432;11.418;2022-07-29T11:12:51;5.55;;;3.10;;
15012;SDS011;7603;49.432;11.418;2022-07-29T11:15:21;3.40;;;3.20;;
15012;SDS011;7603;49.432;11.418;2022-07-29T11:22:59;3.17;;;2.88;;
15012;SDS011;7603;49.432;11.418;2022-07-29T11:25:26;7.60;;;3.28;;
15012;SDS011;7603;49.432;11.418;2022-07-29T11:28:07;2.80;;;2.70;;
15012;SDS011;7603;49.432;11.418;2022-07-29T11:30:48;5.28;;;3.05;;
15012;SDS011;7603;49.432;11.418;2022-07-29T11:33:30;3.15;;;2.92;;
15012;SDS011;7603;49.432;11.418;2022-07-29T11:36:12;2.80;;;2.70;;
15012;SDS011;7603;49.432;11.418;2022-07-29T11:38:40;4.03;;;3.00;;
15012;SDS011;7603;49.432;11.418;2022-07-29T11:41:27;5.47;;;2.80;;
15012;SDS011;7603;49.432;11.418;2022-07-29T11:43:55;2.97;;;2.63;;
15012;SDS011;7603;49.432;11.418;2022-07-29T14:29:14;6.57;;;4.18;;
15012;SDS011;7603;49.432;11.418;2022-07-29T14:31:40;4.35;;;4.05;;
15012;SDS011;7603;49.432;11.418;2022-07-29T14:34:05;4.80;;;4.38;;
15012;SDS011;7603;49.432;11.418;2022-07-29T14:36:31;4.22;;;3.92;;
15012;SDS011;7603;49.432;11.418;2022-07-29T14:38:56;4.40;;;4.00;;
15012;SDS011;7603;49.432;11.418;2022-07-29T14:41:22;5.70;;;4.70;;
15012;SDS011;7603;49.432;11.418;2022-07-29T14:43:48;4.38;;;4.07;;
15012;SDS011;7603;49.432;11.418;2022-07-29T14:46:13;5.80;;;4.38;;
15012;SDS011;7603;49.432;11.418;2022-07-29T14:48:39;3.97;;;3.78;;
15012;SDS011;7603;49.432;11.418;2022-07-29T14:51:05;4.72;;;4.47;;
15012;SDS011;7603;49.432;11.418;2022-07-29T14:56:39;4.13;;;3.63;;
15012;SDS011;7603;49.432;11.418;2022-07-29T14:59:05;4.72;;;3.70;;
15012;SDS011;7603;49.432;11.418;2022-07-29T15:01:31;4.15;;;3.85;;
15012;SDS011;7603;49.432;11.418;2022-07-29T15:03:57;4.60;;;3.90;;
15012;SDS011;7603;49.432;11.418;2022-07-29T15:06:23;3.70;;;3.50;;
15012;SDS011;7603;49.432;11.418;2022-07-29T15:08:48;4.13;;;3.40;;
15012;SDS011;7603;49.432;11.418;2022-07-29T15:11:14;3.22;;;3.00;;
15012;SDS011;7603;49.432;11.418;2022-07-29T15:13:39;3.13;;;2.90;;
15012;SDS011;7603;49.432;11.418;2022-07-29T15:16:05;3.00;;;2.80;;
15012;SDS011;7603;49.432;11.418;2022-07-29T15:18:31;3.78;;;2.67;;
15012;SDS011;7603;49.432;11.418;2022-07-29T15:20:57;2.85;;;2.65;;
15012;SDS011;7603;49.432;11.418;2022-07-29T15:23:25;2.70;;;2.50;;
15012;SDS011;7603;49.432;11.418;2022-07-29T15:25:50;2.92;;;2.60;;
15012;SDS011;7603;49.432;11.418;2022-07-29T15:28:16;3.10;;;2.90;;
15012;SDS011;7603;49.432;11.418;2022-07-29T15:30:41;2.95;;;2.63;;
15012;SDS011;7603;49.432;11.418;2022-07-29T15:33:08;4.18;;;2.92;;
15012;SDS011;7603;49.432;11.418;2022-07-29T15:35:35;2.90;;;2.63;;
15012;SDS011;7603;49.432;11.418;2022-07-29T15:38:02;4.07;;;2.97;;
15012;SDS011;7603;49.432;11.418;2022-07-29T15:40:28;3.67;;;3.38;;
15012;SDS011;7603;49.432;11.418;2022-07-29T15:42:54;4.13;;;3.83;;
15012;SDS011;7603;49.432;11.418;2022-07-29T15:45:19;5.50;;;4.03;;
15012;SDS011;7603;49.432;11.418;2022-07-29T15:47:45;6.25;;;3.42;;
15012;SDS011;7603;49.432;11.418;2022-07-29T15:50:11;3.90;;;3.60;;
15012;SDS011;7603;49.432;11.418;2022-07-29T15:52:40;7.88;;;3.90;;
15012;SDS011;7603;49.432;11.418;2022-07-29T15:55:06;6.97;;;3.88;;
15012;SDS011;7603;49.432;11.418;2022-07-29T15:57:32;4.43;;;4.00;;
15012;SDS011;7603;49.432;11.418;2022-07-29T15:59:58;4.60;;;4.18;;
15012;SDS011;7603;49.432;11.418;2022-07-29T16:02:23;4.57;;;3.70;;
15012;SDS011;7603;49.432;11.418;2022-07-29T16:04:49;4.25;;;3.95;;
15012;SDS011;7603;49.432;11.418;2022-07-29T16:07:15;3.88;;;3.67;;
15012;SDS011;7603;49.432;11.418;2022-07-29T16:09:41;4.45;;;3.97;;
15012;SDS011;7603;49.432;11.418;2022-07-29T16:12:07;4.30;;;4.00;;
15012;SDS011;7603;49.432;11.418;2022-07-29T16:14:34;4.03;;;3.83;;
15012;SDS011;7603;49.432;11.418;2022-07-29T16:16:59;6.07;;;4.30;;
15012;SDS011;7603;49.432;11.418;2022-07-29T16:19:27;3.63;;;3.42;;
15012;SDS011;7603;49.432;11.418;2022-07-29T16:21:54;4.60;;;4.28;;
15012;SDS011;7603;49.432;11.418;2022-07-29T16:24:20;3.97;;;3.70;;
15012;SDS011;7603;49.432;11.418;2022-07-29T16:26:46;6.13;;;4.88;;
15012;SDS011;7603;49.432;11.418;2022-07-29T16:29:11;5.75;;;5.20;;
15012;SDS011;7603;49.432;11.418;2022-07-29T16:31:37;5.85;;;5.32;;
15012;SDS011;7603;49.432;11.418;2022-07-29T16:34:03;6.10;;;5.65;;
15012;SDS011;7603;49.432;11.418;2022-07-29T16:36:28;7.63;;;5.43;;
15012;SDS011;7603;49.432;11.418;2022-07-29T16:38:54;6.03;;;5.57;;
15012;SDS011;7603;49.432;11.418;2022-07-29T16:41:20;5.30;;;4.82;;
15012;SDS011;7603;49.432;11.418;2022-07-29T16:43:45;6.22;;;5.63;;
15012;SDS011;7603;49.432;11.418;2022-07-29T16:46:11;8.35;;;5.05;;
15012;SDS011;7603;49.432;11.418;2022-07-29T16:48:37;5.72;;;5.13;;
15012;SDS011;7603;49.432;11.418;2022-07-29T16:51:05;6.18;;;5.57;;
15012;SDS011;7603;49.432;11.418;2022-07-29T16:53:32;7.60;;;5.30;;
15012;SDS011;7603;49.432;11.418;2022-07-29T16:55:58;7.22;;;5.50;;
15012;SDS011;7603;49.432;11.418;2022-07-29T16:58:24;9.23;;;7.13;;
15012;SDS011;7603;49.432;11.418;2022-07-29T17:00:51;7.28;;;5.88;;
15012;SDS011;7603;49.432;11.418;2022-07-29T17:03:16;8.02;;;5.95;;
15012;SDS011;7603;49.432;11.418;2022-07-29T17:05:43;9.82;;;7.07;;
15012;SDS011;7603;49.432;11.418;2022-07-29T17:08:09;8.55;;;5.50;;
15012;SDS011;7603;49.432;11.418;2022-07-29T17:10:34;6.95;;;5.82;;
15012;SDS011;7603;49.432;11.418;2022-07-29T17:13:00;7.30;;;5.05;;
15012;SDS011;7603;49.432;11.418;2022-07-29T17:15:25;5.47;;;5.05;;
15012;SDS011;7603;49.432;11.418;2022-07-29T17:17:51;5.18;;;4.82;;
15012;SDS011;7603;49.432;11.418;2022-07-29T17:20:17;5.93;;;5.05;;
15012;SDS011;7603;49.432;11.418;2022-07-29T17:22:42;7.13;;;6.40;;
15012;SDS011;7603;49.432;11.418;2022-07-29T17:25:08;5.03;;;4.60;;
15012;SDS011;7603;49.432;11.418;2022-07-29T17:27:35;4.97;;;4.65;;
15012;SDS011;7603;49.432;11.418;2022-07-29T17:30:01;4.55;;;3.97;;
15012;SDS011;7603;49.432;11.418;2022-07-29T17:32:28;4.53;;;4.22;;
15012;SDS011;7603;49.432;11.418;2022-07-29T17:34:54;5.72;;;4.65;;
15012;SDS011;7603;49.432;11.418;2022-07-29T17:37:19;4.82;;;4.53;;
15012;SDS011;7603;49.432;11.418;2022-07-29T17:39:45;4.88;;;4.32;;
15012;SDS011;7603;49.432;11.418;2022-07-29T17:42:12;7.35;;;4.30;;
15012;SDS011;7603;49.432;11.418;2022-07-29T17:44:38;5.13;;;4.68;;
15012;SDS011;7603;49.432;11.418;2022-07-29T17:47:05;6.60;;;6.00;;
15012;SDS011;7603;49.432;11.418;2022-07-29T17:49:31;5.82;;;5.20;;
15012;SDS011;7603;49.432;11.418;2022-07-29T17:51:57;5.10;;;4.70;;
15012;SDS011;7603;49.432;11.418;2022-07-29T17:54:23;4.88;;;4.55;;
15012;SDS011;7603;49.432;11.418;2022-07-29T17:56:49;6.22;;;4.35;;
15012;SDS011;7603;49.432;11.418;2022-07-29T17:59:15;4.97;;;4.57;;
15012;SDS011;7603;49.432;11.418;2022-07-29T18:01:40;4.60;;;4.30;;
15012;SDS011;7603;49.432;11.418;2022-07-29T18:04:06;4.85;;;4.30;;
15012;SDS011;7603;49.432;11.418;2022-07-29T18:06:32;5.22;;;4.72;;